Time;durP1;ratioP1;P1;durP2;ratioP2;P2;SDS_P1;SDS_P2;PMS_P1;PMS_P2;Temp;Humidity;BMP_temperature;BMP_pressure;BME280_temperature;BME280_humidity;BME280_pressure;Samples;Min_cycle;Max_cycle;Signal;HPM_P1;HPM_P2
2021/01/18 00:01:28;;;;;;;3.60;3.08;;;3.50;99.90;;;;;;5052703;28;20397;-76
2021/01/18 00:03:54;;;;;;;3.05;2.30;;;3.40;99.90;;;;;;5053001;28;20390;-76
2021/01/18 00:06:20;;;;;;;5.83;3.27;;;2.70;99.90;;;;;;5053541;28;20380;-76
2021/01/18 00:08:47;;;;;;;5.57;3.40;;;2.90;99.90;;;;;;5052708;28;20382;-76
2021/01/18 00:11:14;;;;;;;4.45;3.38;;;2.50;99.90;;;;;;5053363;28;20437;-76
2021/01/18 00:13:40;;;;;;;5.57;4.30;;;3.30;99.90;;;;;;5052671;28;20754;-76
2021/01/18 00:16:06;;;;;;;6.03;3.83;;;3.40;99.90;;;;;;5053282;28;20381;-76
2021/01/18 00:18:32;;;;;;;6.10;3.80;;;2.30;99.90;;;;;;5053067;28;20460;-82
2021/01/18 00:20:59;;;;;;;5.13;3.90;;;2.50;99.90;;;;;;5052708;28;20937;-76
2021/01/18 00:23:24;;;;;;;4.95;3.88;;;2.20;99.90;;;;;;5052743;28;20806;-76
2021/01/18 00:25:51;;;;;;;4.40;3.88;;;4.20;99.90;;;;;;5052171;28;20384;-76
2021/01/18 00:28:17;;;;;;;3.80;2.72;;;2.80;99.90;;;;;;5053001;28;20373;-76
2021/01/18 00:30:43;;;;;;;3.47;3.03;;;3.10;99.90;;;;;;5052212;28;20691;-75
2021/01/18 00:33:09;;;;;;;3.50;2.53;;;2.40;99.90;;;;;;5053096;28;20386;-75
2021/01/18 00:35:34;;;;;;;3.37;2.60;;;2.70;99.90;;;;;;5052372;28;20386;-80
2021/01/18 00:38:00;;;;;;;3.45;2.65;;;2.90;99.90;;;;;;5051514;28;20401;-75
2021/01/18 00:40:26;;;;;;;3.65;2.30;;;2.60;99.90;;;;;;5052707;28;20388;-75
2021/01/18 00:42:52;;;;;;;3.17;2.33;;;3.00;99.90;;;;;;5050796;28;21068;-75
2021/01/18 00:45:19;;;;;;;2.92;2.50;;;2.70;99.90;;;;;;5052816;28;20412;-75
2021/01/18 00:47:47;;;;;;;4.60;2.30;;;2.90;99.90;;;;;;5052107;28;20381;-75
2021/01/18 00:50:18;;;;;;;4.85;2.40;;;3.80;99.90;;;;;;5052561;28;20570;-75
2021/01/18 00:52:47;;;;;;;3.28;2.42;;;3.00;99.90;;;;;;5051810;28;20408;-75
2021/01/18 00:55:18;;;;;;;2.10;1.90;;;3.80;99.90;;;;;;5052507;28;20472;-75
2021/01/18 00:57:45;;;;;;;3.30;2.20;;;3.70;99.90;;;;;;5051974;28;20832;-76
2021/01/18 01:00:14;;;;;;;3.20;2.35;;;2.70;99.90;;;;;;5052269;28;20803;-75
2021/01/18 01:02:41;;;;;;;2.45;1.98;;;2.40;99.90;;;;;;5050755;28;20389;-76
2021/01/18 01:05:09;;;;;;;3.25;2.58;;;2.50;99.90;;;;;;5052140;28;20374;-75
2021/01/18 01:07:43;;;;;;;2.45;2.25;;;2.50;99.90;;;;;;5052216;28;20773;-80
2021/01/18 01:10:10;;;;;;;3.05;2.38;;;4.30;99.90;;;;;;5051064;28;20476;-75
2021/01/18 01:12:36;;;;;;;2.90;2.20;;;2.60;99.90;;;;;;5051956;28;20785;-80
2021/01/18 01:15:04;;;;;;;3.30;2.40;;;2.60;99.90;;;;;;5052127;28;20386;-75
2021/01/18 01:17:29;;;;;;;4.13;2.75;;;2.30;99.90;;;;;;5051749;28;20874;-75
2021/01/18 01:19:55;;;;;;;3.80;2.60;;;2.80;99.90;;;;;;5051151;28;20478;-75
2021/01/18 01:22:21;;;;;;;3.67;2.10;;;2.60;99.90;;;;;;5052054;28;20439;-75
2021/01/18 01:24:46;;;;;;;2.93;2.60;;;2.60;99.90;;;;;;5051226;28;20381;-75
2021/01/18 01:27:12;;;;;;;3.10;2.50;;;2.70;99.90;;;;;;5051706;28;20392;-76
2021/01/18 01:29:38;;;;;;;2.40;2.00;;;3.20;99.90;;;;;;5051443;28;20382;-80
2021/01/18 01:32:03;;;;;;;4.10;2.40;;;2.60;99.90;;;;;;5050496;28;20500;-76
2021/01/18 01:34:29;;;;;;;3.33;2.83;;;2.20;99.90;;;;;;5051831;28;20907;-76
2021/01/18 01:36:55;;;;;;;4.50;2.80;;;2.80;99.90;;;;;;5051060;28;20485;-76
2021/01/18 01:39:21;;;;;;;3.30;2.40;;;2.70;99.90;;;;;;5051699;28;20378;-76
2021/01/18 01:41:46;;;;;;;3.58;2.97;;;2.20;99.90;;;;;;5051085;28;20847;-75
2021/01/18 01:44:12;;;;;;;4.18;2.75;;;2.80;99.90;;;;;;5051743;28;20432;-75
2021/01/18 01:46:38;;;;;;;3.65;2.72;;;2.20;99.90;;;;;;5050006;28;20408;-80
2021/01/18 01:49:04;;;;;;;3.10;2.42;;;2.30;99.90;;;;;;5051250;28;20489;-75
2021/01/18 01:51:30;;;;;;;4.70;3.10;;;2.60;99.90;;;;;;5051425;28;20408;-76
2021/01/18 01:53:58;;;;;;;5.20;3.50;;;2.20;99.90;;;;;;5050934;28;21229;-76
2021/01/18 01:56:24;;;;;;;3.08;2.67;;;2.50;99.90;;;;;;5051411;28;20762;-75
2021/01/18 01:58:54;;;;;;;2.70;2.40;;;2.80;99.90;;;;;;5050678;28;20381;-76
2021/01/18 02:01:21;;;;;;;2.30;2.08;;;2.60;99.90;;;;;;5051156;28;20742;-76
2021/01/18 02:03:51;;;;;;;2.90;2.30;;;3.70;99.90;;;;;;5050509;28;20415;-76
2021/01/18 02:06:17;;;;;;;3.35;2.70;;;2.10;99.90;;;;;;5051002;28;20381;-76
2021/01/18 02:08:43;;;;;;;5.10;2.70;;;3.90;99.90;;;;;;5050238;28;20409;-76
2021/01/18 02:11:08;;;;;;;3.00;2.60;;;2.70;99.90;;;;;;5050735;28;20401;-76
2021/01/18 02:13:52;;;;;;;3.05;2.30;;;2.70;99.90;;;;;;5050428;28;20433;-76
2021/01/18 02:16:41;;;;;;;3.33;2.30;;;2.80;99.90;;;;;;5051328;28;20394;-75
2021/01/18 02:19:22;;;;;;;3.38;2.60;;;3.80;99.90;;;;;;5050754;28;20377;-76
2021/01/18 02:22:26;;;;;;;2.50;2.30;;;2.20;99.90;;;;;;5049947;28;20905;-76
2021/01/18 02:25:16;;;;;;;3.63;2.55;;;2.10;99.90;;;;;;5049754;28;20854;-75
2021/01/18 02:28:05;;;;;;;3.28;2.60;;;3.10;99.90;;;;;;5050181;28;20386;-80
2021/01/18 02:30:48;;;;;;;4.30;2.47;;;1.90;99.90;;;;;;5050569;28;20382;-76
2021/01/18 02:33:44;;;;;;;4.53;2.25;;;2.00;99.90;;;;;;5050808;28;20400;-76
2021/01/18 02:36:42;;;;;;;3.55;2.50;;;2.00;99.90;;;;;;5050663;28;20382;-76
2021/01/18 02:39:40;;;;;;;3.15;2.50;;;2.50;99.90;;;;;;5050548;28;20742;-76
2021/01/18 02:42:12;;;;;;;3.25;2.20;;;2.20;99.90;;;;;;5047044;28;20412;-76
2021/01/18 02:44:40;;;;;;;4.00;3.10;;;2.20;99.90;;;;;;5050797;28;20456;-76
2021/01/18 02:47:08;;;;;;;2.92;2.38;;;3.80;99.90;;;;;;5049864;28;20378;-76
2021/01/18 02:49:34;;;;;;;2.88;2.17;;;2.50;99.90;;;;;;5050227;28;20405;-76
2021/01/18 02:52:08;;;;;;;4.70;2.80;;;2.20;99.90;;;;;;5050094;28;20447;-76
2021/01/18 02:54:33;;;;;;;3.42;2.55;;;2.10;99.90;;;;;;5050636;28;20726;-75
2021/01/18 02:56:59;;;;;;;4.20;2.70;;;2.40;99.90;;;;;;5049508;28;20382;-76
2021/01/18 02:59:25;;;;;;;2.80;2.40;;;1.90;99.90;;;;;;5050334;28;20382;-76
2021/01/18 03:02:03;;;;;;;2.90;2.60;;;2.20;99.90;;;;;;5049637;28;20385;-76
2021/01/18 03:04:40;;;;;;;3.35;2.63;;;1.70;99.90;;;;;;5050156;28;20503;-76
2021/01/18 03:07:15;;;;;;;3.00;2.63;;;1.80;99.90;;;;;;5049532;28;20395;-76
2021/01/18 03:09:50;;;;;;;4.55;2.90;;;1.70;99.90;;;;;;5050628;28;20853;-80
2021/01/18 03:12:21;;;;;;;3.83;2.78;;;1.00;99.90;;;;;;5049961;28;20433;-76
2021/01/18 03:14:52;;;;;;;3.45;2.53;;;2.00;99.90;;;;;;5049963;28;20385;-76
2021/01/18 03:17:24;;;;;;;3.78;3.08;;;4.20;99.90;;;;;;5050417;28;20374;-76
2021/01/18 03:19:50;;;;;;;5.13;3.40;;;3.10;99.90;;;;;;5049707;28;20404;-75
2021/01/18 03:22:30;;;;;;;4.30;3.30;;;2.00;99.90;;;;;;5048705;28;20393;-76
2021/01/18 03:25:03;;;;;;;3.90;3.50;;;2.70;99.90;;;;;;5050564;28;20941;-75
2021/01/18 03:27:43;;;;;;;4.43;3.55;;;2.00;99.90;;;;;;5054150;28;20439;-75
2021/01/18 03:30:10;;;;;;;5.05;3.38;;;2.10;99.90;;;;;;5054508;28;20381;-76
2021/01/18 03:32:35;;;;;;;5.40;2.80;;;1.80;99.90;;;;;;5054277;28;20456;-76
2021/01/18 03:35:01;;;;;;;5.13;2.80;;;3.80;99.90;;;;;;5053901;28;20385;-75
2021/01/18 03:37:26;;;;;;;3.03;2.73;;;1.70;99.90;;;;;;5054212;28;20834;-76
2021/01/18 03:39:52;;;;;;;2.90;2.60;;;1.60;99.90;;;;;;5051902;28;20801;-76
2021/01/18 03:42:18;;;;;;;3.88;2.80;;;3.90;99.90;;;;;;5055566;28;20396;-74
2021/01/18 03:44:43;;;;;;;5.53;3.30;;;4.00;99.90;;;;;;5053582;28;20386;-81
2021/01/18 03:47:09;;;;;;;3.90;3.00;;;1.90;99.90;;;;;;5053751;28;20723;-75
2021/01/18 03:49:34;;;;;;;4.28;3.50;;;1.60;99.90;;;;;;5053957;28;20496;-75
2021/01/18 03:52:00;;;;;;;5.30;3.60;;;2.50;99.90;;;;;;5052918;28;20401;-75
2021/01/18 03:54:26;;;;;;;5.10;3.40;;;2.80;99.90;;;;;;5053605;28;20385;-75
2021/01/18 03:56:51;;;;;;;4.00;3.60;;;1.70;99.90;;;;;;5053022;28;20461;-75
2021/01/18 03:59:17;;;;;;;5.37;3.70;;;2.90;99.90;;;;;;5053837;28;20734;-75
2021/01/18 04:01:42;;;;;;;3.97;3.30;;;2.80;99.90;;;;;;5053572;28;20381;-76
2021/01/18 04:04:08;;;;;;;6.00;3.80;;;2.10;99.90;;;;;;5052723;28;20400;-75
2021/01/18 04:06:35;;;;;;;4.47;3.40;;;3.30;99.90;;;;;;5053530;28;20384;-75
2021/01/18 04:09:02;;;;;;;4.10;3.30;;;3.20;99.90;;;;;;5052599;28;20378;-75
2021/01/18 04:11:28;;;;;;;3.20;2.60;;;2.20;99.90;;;;;;5053501;28;20762;-76
2021/01/18 04:13:53;;;;;;;8.45;3.00;;;2.10;99.90;;;;;;5052450;28;20393;-76
2021/01/18 04:16:19;;;;;;;4.40;3.10;;;3.50;99.90;;;;;;5053426;28;20381;-75
2021/01/18 04:18:44;;;;;;;5.35;3.58;;;2.70;99.90;;;;;;5053147;28;20388;-78
2021/01/18 04:21:10;;;;;;;4.67;3.10;;;2.80;99.90;;;;;;5052751;28;20462;-76
2021/01/18 04:23:36;;;;;;;4.03;2.67;;;2.00;99.90;;;;;;5053327;28;20438;-75
2021/01/18 04:26:01;;;;;;;3.10;2.80;;;2.10;99.90;;;;;;5052175;28;20385;-76
2021/01/18 04:28:27;;;;;;;5.97;2.97;;;2.60;99.90;;;;;;5053423;28;20456;-76
2021/01/18 04:30:52;;;;;;;4.20;3.00;;;1.90;99.90;;;;;;5051103;28;20500;-76
2021/01/18 04:33:18;;;;;;;3.50;2.95;;;2.00;99.90;;;;;;5052771;28;20784;-76
2021/01/18 04:35:44;;;;;;;5.90;2.70;;;3.80;99.90;;;;;;5052678;28;20426;-75
2021/01/18 04:38:09;;;;;;;5.28;3.33;;;3.00;99.90;;;;;;5052104;28;20488;-76
2021/01/18 04:40:36;;;;;;;4.78;3.35;;;2.10;99.90;;;;;;5051743;28;20424;-75
2021/01/18 04:43:02;;;;;;;5.45;3.30;;;2.30;99.90;;;;;;5051864;28;20392;-76
2021/01/18 04:45:29;;;;;;;6.43;3.30;;;2.20;99.90;;;;;;5052732;28;20378;-75
2021/01/18 04:47:57;;;;;;;6.93;3.30;;;2.50;99.90;;;;;;5051912;28;20373;-76
2021/01/18 04:50:25;;;;;;;6.43;3.50;;;3.90;99.90;;;;;;5053028;28;20473;-75
2021/01/18 04:52:53;;;;;;;3.72;2.65;;;2.40;99.90;;;;;;5051965;28;20447;-81
2021/01/18 04:55:30;;;;;;;5.47;3.20;;;4.30;99.90;;;;;;5052755;28;20447;-76
2021/01/18 04:58:01;;;;;;;5.25;3.15;;;4.50;99.90;;;;;;5051920;28;20392;-75
2021/01/18 05:00:43;;;;;;;4.03;2.92;;;2.80;99.90;;;;;;5052158;28;20408;-75
2021/01/18 05:03:11;;;;;;;5.53;3.50;;;2.60;99.90;;;;;;5052088;28;21134;-76
2021/01/18 05:06:12;;;;;;;5.25;3.30;;;3.00;99.90;;;;;;5053059;28;20417;-76
2021/01/18 05:09:02;;;;;;;3.80;2.85;;;2.20;99.90;;;;;;5053057;28;20546;-75
2021/01/18 05:11:28;;;;;;;4.57;2.80;;;2.40;99.90;;;;;;5052579;28;20832;-76
2021/01/18 05:14:04;;;;;;;3.88;3.30;;;2.80;99.90;;;;;;5052159;28;20382;-76
2021/01/18 05:16:35;;;;;;;4.13;2.50;;;3.60;99.90;;;;;;5052718;28;20722;-76
2021/01/18 05:19:20;;;;;;;5.18;3.80;;;3.80;99.90;;;;;;5051857;28;20374;-76
2021/01/18 05:21:47;;;;;;;4.13;2.42;;;1.70;99.90;;;;;;5051292;28;20396;-76
2021/01/18 05:24:14;;;;;;;5.00;3.05;;;4.40;99.90;;;;;;5051812;28;20408;-75
2021/01/18 05:26:41;;;;;;;3.22;2.80;;;2.60;99.90;;;;;;5052359;28;20382;-76
2021/01/18 05:29:07;;;;;;;4.00;3.10;;;4.40;99.90;;;;;;5051738;28;20742;-76
2021/01/18 05:31:34;;;;;;;5.53;3.78;;;2.20;99.90;;;;;;5052423;28;20417;-76
2021/01/18 05:34:12;;;;;;;5.38;3.53;;;2.10;99.90;;;;;;5050247;28;20964;-75
2021/01/18 05:36:39;;;;;;;6.15;3.92;;;2.50;99.90;;;;;;5052719;28;20433;-76
2021/01/18 05:39:15;;;;;;;6.20;3.60;;;2.40;99.90;;;;;;5051452;28;20377;-76
2021/01/18 05:41:42;;;;;;;4.72;3.00;;;2.20;99.90;;;;;;5052344;28;20739;-75
2021/01/18 05:44:09;;;;;;;4.88;3.33;;;2.10;99.90;;;;;;5050180;28;20389;-75
2021/01/18 05:46:36;;;;;;;6.78;3.40;;;2.90;99.90;;;;;;5050243;28;20425;-75
2021/01/18 05:49:08;;;;;;;5.75;3.65;;;2.40;99.90;;;;;;5050070;28;20408;-76
2021/01/18 05:51:34;;;;;;;6.70;4.00;;;2.00;99.90;;;;;;5051859;28;20426;-75
2021/01/18 05:54:02;;;;;;;4.40;3.40;;;2.70;99.90;;;;;;5051139;28;20781;-76
2021/01/18 05:56:38;;;;;;;6.18;3.80;;;3.70;99.90;;;;;;5050917;28;20382;-75
2021/01/18 05:59:20;;;;;;;5.80;3.95;;;3.80;99.90;;;;;;5050965;28;20382;-75
2021/01/18 06:01:48;;;;;;;5.32;3.90;;;2.10;99.90;;;;;;5050818;28;20451;-75
2021/01/18 06:04:19;;;;;;;4.97;3.70;;;4.50;99.90;;;;;;5050600;28;20456;-75
2021/01/18 06:06:55;;;;;;;4.93;3.80;;;1.80;99.90;;;;;;5051664;28;20385;-75
2021/01/18 06:09:23;;;;;;;5.00;3.90;;;2.00;99.90;;;;;;5050134;28;20385;-75
2021/01/18 06:11:49;;;;;;;4.47;3.63;;;3.20;99.90;;;;;;5051414;28;20786;-75
2021/01/18 06:14:18;;;;;;;5.40;4.20;;;4.50;99.90;;;;;;5050758;28;20386;-75
2021/01/18 06:16:48;;;;;;;4.88;3.78;;;2.60;99.90;;;;;;5051021;28;20734;-75
2021/01/18 06:19:22;;;;;;;4.57;3.80;;;1.90;99.90;;;;;;5050102;28;20451;-74
2021/01/18 06:21:48;;;;;;;4.90;3.58;;;1.80;99.90;;;;;;5051916;28;20389;-75
2021/01/18 06:24:34;;;;;;;4.23;3.60;;;2.70;99.90;;;;;;5050281;28;20518;-75
2021/01/18 06:26:59;;;;;;;5.32;3.90;;;2.30;99.90;;;;;;5050569;28;20408;-75
2021/01/18 06:29:39;;;;;;;6.20;4.80;;;2.40;99.90;;;;;;5050811;28;20377;-80
2021/01/18 06:32:07;;;;;;;5.33;3.87;;;2.10;99.90;;;;;;5048239;28;20552;-80
2021/01/18 06:34:32;;;;;;;4.97;4.28;;;2.00;99.90;;;;;;5050917;28;20439;-79
2021/01/18 06:36:59;;;;;;;7.00;4.20;;;3.40;99.90;;;;;;5049139;28;20476;-79
2021/01/18 06:39:26;;;;;;;9.02;5.35;;;2.50;99.90;;;;;;5049981;28;20462;-79
2021/01/18 06:42:00;;;;;;;3.45;2.70;;;1.70;99.90;;;;;;5050616;28;20413;-78
2021/01/18 06:44:34;;;;;;;3.30;2.70;;;3.90;99.90;;;;;;5051033;28;20439;-78
2021/01/18 06:47:00;;;;;;;6.15;2.90;;;3.00;99.90;;;;;;5050231;28;20453;-77
2021/01/18 06:49:27;;;;;;;2.95;2.17;;;2.50;99.90;;;;;;5050444;28;20503;-76
2021/01/18 06:51:57;;;;;;;4.25;2.20;;;4.10;99.90;;;;;;5050898;28;20873;-75
2021/01/18 06:54:31;;;;;;;3.50;2.55;;;2.90;99.90;;;;;;5050767;28;20386;-76
2021/01/18 06:57:11;;;;;;;2.50;2.20;;;5.30;99.90;;;;;;5050224;28;20836;-81
2021/01/18 06:59:49;;;;;;;4.40;2.63;;;2.90;99.90;;;;;;5050761;28;20391;-77
2021/01/18 07:02:27;;;;;;;3.67;2.60;;;2.90;99.90;;;;;;5048837;28;21017;-77
2021/01/18 07:05:19;;;;;;;5.80;3.20;;;4.80;99.90;;;;;;5050134;28;20389;-77
2021/01/18 07:07:55;;;;;;;4.25;3.30;;;4.00;99.90;;;;;;5034546;28;20935;-76
2021/01/18 07:10:22;;;;;;;4.20;3.38;;;2.40;99.90;;;;;;5049622;28;20389;-77
2021/01/18 07:12:48;;;;;;;4.77;3.40;;;4.00;99.90;;;;;;5050337;28;20913;-75
2021/01/18 07:15:15;;;;;;;4.47;3.67;;;2.90;99.90;;;;;;5049319;28;20768;-78
2021/01/18 07:17:43;;;;;;;4.95;2.75;;;2.50;99.90;;;;;;5050515;28;20404;-75
2021/01/18 07:20:25;;;;;;;5.32;3.60;;;2.10;99.90;;;;;;5046625;28;20490;-81
2021/01/18 07:22:53;;;;;;;5.00;4.50;;;3.00;99.90;;;;;;5046050;28;20739;-75
2021/01/18 07:25:22;;;;;;;5.68;4.05;;;4.10;99.90;;;;;;5049976;28;20392;-79
2021/01/18 07:27:52;;;;;;;5.00;3.72;;;2.60;99.90;;;;;;5046334;28;20405;-80
2021/01/18 07:30:18;;;;;;;7.88;3.90;;;2.60;99.90;;;;;;5046191;28;20468;-80
2021/01/18 07:32:44;;;;;;;5.60;4.30;;;2.50;99.90;;;;;;5047408;28;20401;-79
2021/01/18 07:35:11;;;;;;;5.38;4.30;;;2.70;99.90;;;;;;5047165;28;20858;-80
2021/01/18 07:37:37;;;;;;;7.65;4.43;;;2.30;99.90;;;;;;5048120;28;20790;-80
2021/01/18 07:40:11;;;;;;;6.05;4.18;;;2.40;99.90;;;;;;5047781;28;20436;-81
2021/01/18 07:42:38;;;;;;;7.35;4.88;;;2.50;99.90;;;;;;5046131;28;20489;-82
2021/01/18 07:45:10;;;;;;;5.35;4.60;;;2.40;99.90;;;;;;5045072;28;20390;-79
2021/01/18 07:47:55;;;;;;;4.43;3.90;;;2.40;99.90;;;;;;5047238;28;20405;-79
2021/01/18 07:50:27;;;;;;;6.20;4.40;;;2.10;99.90;;;;;;5044848;28;20402;-79
2021/01/18 07:53:30;;;;;;;6.10;4.85;;;2.40;99.90;;;;;;5046048;28;20433;-80
2021/01/18 07:56:02;;;;;;;5.10;4.50;;;2.50;99.90;;;;;;5046419;28;20476;-80
2021/01/18 07:58:30;;;;;;;5.00;3.92;;;2.60;99.90;;;;;;5045588;28;20390;-80
2021/01/18 08:01:07;;;;;;;3.72;3.35;;;2.40;99.90;;;;;;5049924;28;20390;-80
2021/01/18 08:03:32;;;;;;;7.07;4.30;;;2.60;99.90;;;;;;5048061;28;20385;-80
2021/01/18 08:06:09;;;;;;;7.78;3.78;;;2.60;99.90;;;;;;5048014;28;20443;-80
2021/01/18 08:08:35;;;;;;;5.88;4.57;;;2.40;99.90;;;;;;5048582;28;20378;-80
2021/01/18 08:11:06;;;;;;;6.78;4.50;;;2.80;99.90;;;;;;5048367;28;20482;-81
2021/01/18 08:13:42;;;;;;;7.47;4.22;;;4.10;99.90;;;;;;5051408;28;20412;-80
2021/01/18 08:16:24;;;;;;;7.03;4.25;;;2.70;99.90;;;;;;5051397;28;20386;-80
2021/01/18 08:18:51;;;;;;;7.20;3.97;;;3.20;99.90;;;;;;5051680;28;20377;-80
2021/01/18 08:21:39;;;;;;;4.80;4.20;;;2.70;99.90;;;;;;5048586;28;20956;-80
2021/01/18 08:24:16;;;;;;;5.65;3.97;;;2.70;99.90;;;;;;5050966;28;20417;-80
2021/01/18 08:26:57;;;;;;;5.43;3.97;;;2.30;99.90;;;;;;5051879;28;20389;-79
2021/01/18 08:29:49;;;;;;;4.90;3.40;;;2.70;99.90;;;;;;5051000;28;21017;-79
2021/01/18 08:32:23;;;;;;;4.60;3.80;;;2.70;99.90;;;;;;5046876;28;20489;-81
2021/01/18 08:35:00;;;;;;;3.15;2.80;;;2.80;99.90;;;;;;5050814;28;21121;-80
2021/01/18 08:37:28;;;;;;;4.90;2.72;;;2.80;99.90;;;;;;5049655;28;20429;-80
2021/01/18 08:39:59;;;;;;;4.03;1.75;;;2.90;99.90;;;;;;5050650;28;20393;-81
2021/01/18 08:42:30;;;;;;;2.55;1.70;;;2.90;99.90;;;;;;5047447;28;20394;-78
2021/01/18 08:45:20;;;;;;;4.20;2.33;;;3.50;99.90;;;;;;5049602;28;20441;-79
2021/01/18 08:48:04;;;;;;;2.80;1.80;;;3.30;99.90;;;;;;5043431;28;20405;-78
2021/01/18 08:50:54;;;;;;;3.00;1.80;;;3.60;99.90;;;;;;5042097;28;20428;-78
2021/01/18 08:53:46;;;;;;;4.10;1.90;;;3.70;99.90;;;;;;5047569;28;20405;-78
2021/01/18 08:56:21;;;;;;;2.38;2.08;;;3.70;99.90;;;;;;5043620;28;20409;-77
2021/01/18 08:58:47;;;;;;;2.80;1.98;;;3.50;99.90;;;;;;5049510;28;20480;-78
2021/01/18 09:01:22;;;;;;;2.20;2.00;;;4.30;99.90;;;;;;5048206;28;20424;-78
2021/01/18 09:04:01;;;;;;;4.07;2.60;;;3.40;99.90;;;;;;5048262;28;20927;-78
2021/01/18 09:06:29;;;;;;;4.47;3.30;;;4.90;99.90;;;;;;5048609;28;20440;-77
2021/01/18 09:09:06;;;;;;;4.50;3.30;;;3.60;99.90;;;;;;5050059;28;20393;-79
2021/01/18 09:11:32;;;;;;;4.07;3.10;;;4.00;99.90;;;;;;5046221;28;20916;-77
2021/01/18 09:13:58;;;;;;;4.22;2.80;;;3.20;99.90;;;;;;5048934;28;20397;-79
2021/01/18 09:16:24;;;;;;;4.18;3.20;;;4.00;99.90;;;;;;5047414;28;20374;-78
2021/01/18 09:18:50;;;;;;;3.60;2.20;;;3.50;99.90;;;;;;5050079;28;20408;-77
2021/01/18 09:21:17;;;;;;;3.00;2.40;;;3.50;99.90;;;;;;5046359;28;20412;-78
2021/01/18 09:23:44;;;;;;;4.00;3.00;;;3.80;99.90;;;;;;5047694;28;20388;-78
2021/01/18 09:26:15;;;;;;;2.53;2.05;;;4.70;99.90;;;;;;5048182;28;20381;-79
2021/01/18 09:28:50;;;;;;;3.30;1.97;;;3.70;99.90;;;;;;5048317;28;20389;-77
2021/01/18 09:31:15;;;;;;;2.47;1.45;;;4.80;99.90;;;;;;5045992;28;20444;-79
2021/01/18 09:33:42;;;;;;;1.88;1.40;;;4.00;99.90;;;;;;5048594;28;20482;-79
2021/01/18 09:36:16;;;;;;;2.40;1.67;;;4.50;99.90;;;;;;5047441;28;20963;-78
2021/01/18 09:38:43;;;;;;;1.98;1.70;;;4.10;99.90;;;;;;5063905;28;20390;-80
2021/01/18 09:41:10;;;;;;;1.60;1.50;;;4.60;99.90;;;;;;5048222;28;20529;-78
2021/01/18 09:43:36;;;;;;;2.10;1.63;;;4.30;99.90;;;;;;5048290;28;20389;-77
2021/01/18 09:46:03;;;;;;;4.97;2.10;;;4.30;99.90;;;;;;5047766;28;20424;-78
2021/01/18 09:48:29;;;;;;;1.92;1.38;;;5.60;99.90;;;;;;5048271;28;20390;-77
2021/01/18 09:51:05;;;;;;;3.60;1.60;;;4.90;99.90;;;;;;5042635;28;20479;-78
2021/01/18 09:53:32;;;;;;;2.00;1.60;;;4.60;99.90;;;;;;5046099;28;20874;-76
2021/01/18 09:56:09;;;;;;;2.70;1.80;;;5.00;99.90;;;;;;5047656;28;20385;-78
2021/01/18 09:58:54;;;;;;;2.10;1.80;;;4.40;99.90;;;;;;5046848;28;20438;-77
2021/01/18 10:01:25;;;;;;;3.50;2.10;;;4.10;99.90;;;;;;5044884;28;20409;-77
2021/01/18 10:03:53;;;;;;;3.80;2.22;;;4.20;99.90;;;;;;5048039;28;20377;-77
2021/01/18 10:06:31;;;;;;;2.10;1.80;;;4.50;99.90;;;;;;5045870;28;20397;-78
2021/01/18 10:09:05;;;;;;;3.35;2.40;;;4.20;99.90;;;;;;5047611;28;20523;-80
2021/01/18 10:11:46;;;;;;;2.60;1.83;;;4.40;99.90;;;;;;5045010;28;20416;-78
2021/01/18 10:14:23;;;;;;;2.15;1.90;;;4.10;99.90;;;;;;5046463;28;20397;-78
2021/01/18 10:17:03;;;;;;;3.20;2.10;;;4.20;99.90;;;;;;5046751;28;20877;-77
2021/01/18 10:19:31;;;;;;;1.70;1.40;;;4.30;99.90;;;;;;5047720;28;20438;-79
2021/01/18 10:21:58;;;;;;;1.63;1.40;;;4.60;99.90;;;;;;5046557;28;20439;-78
2021/01/18 10:24:25;;;;;;;1.75;1.65;;;5.40;99.90;;;;;;5039346;28;21261;-79
2021/01/18 10:27:02;;;;;;;3.53;1.60;;;4.60;99.90;;;;;;5046546;28;20382;-77
2021/01/18 10:29:29;;;;;;;1.38;1.10;;;4.60;99.90;;;;;;5046838;28;20378;-78
2021/01/18 10:31:55;;;;;;;1.80;1.10;;;;;;;;;;5047194;28;20409;-77
2021/01/18 10:34:21;;;;;;;1.30;1.20;;;4.90;99.90;;;;;;5045740;28;21113;-77
2021/01/18 10:36:49;;;;;;;1.70;1.13;;;5.20;99.90;;;;;;5045490;28;20385;-77
2021/01/18 10:39:26;;;;;;;2.40;1.52;;;4.60;99.90;;;;;;5045942;28;20428;-77
2021/01/18 10:42:00;;;;;;;1.65;1.20;;;4.60;99.90;;;;;;5045488;28;20528;-77
2021/01/18 10:44:26;;;;;;;1.10;1.00;;;4.90;99.90;;;;;;5045483;28;20478;-78
2021/01/18 10:46:51;;;;;;;2.00;1.17;;;5.10;99.90;;;;;;5045154;28;20414;-78
2021/01/18 10:49:31;;;;;;;1.80;1.20;;;5.20;99.90;;;;;;5045817;28;20890;-78
2021/01/18 10:52:17;;;;;;;1.73;1.25;;;4.80;99.90;;;;;;5044807;28;20500;-78
2021/01/18 10:54:59;;;;;;;2.70;1.50;;;5.50;99.90;;;;;;5038377;28;20433;-78
2021/01/18 10:57:26;;;;;;;1.80;1.45;;;5.00;99.90;;;;;;5042878;28;20407;-79
2021/01/18 11:00:09;;;;;;;1.10;0.80;;;5.20;99.90;;;;;;5047252;28;20381;-78
2021/01/18 11:02:40;;;;;;;3.25;1.00;;;3.40;99.90;;;;;;5044940;28;20399;-78
2021/01/18 11:05:08;;;;;;;1.30;1.17;;;5.00;99.90;;;;;;5047445;28;20869;-79
2021/01/18 11:07:35;;;;;;;3.60;1.50;;;5.50;99.90;;;;;;5048402;28;20530;-78
2021/01/18 11:10:03;;;;;;;1.40;1.30;;;4.90;99.90;;;;;;5047262;28;20381;-78
2021/01/18 11:12:34;;;;;;;1.60;1.20;;;5.20;99.90;;;;;;5047075;28;20516;-76
2021/01/18 11:15:20;;;;;;;1.17;1.08;;;4.70;99.90;;;;;;5048526;28;20393;-76
2021/01/18 11:17:51;;;;;;;1.13;1.02;;;4.60;99.90;;;;;;5048071;28;20381;-76
2021/01/18 11:20:24;;;;;;;1.70;1.10;;;5.10;99.90;;;;;;5047576;28;20456;-78
2021/01/18 11:22:49;;;;;;;2.60;1.10;;;4.80;99.90;;;;;;5047582;28;20495;-76
2021/01/18 11:25:15;;;;;;;2.10;1.00;;;4.80;99.90;;;;;;5044775;28;20386;-76
2021/01/18 11:27:41;;;;;;;2.60;1.40;;;5.10;99.90;;;;;;5047145;28;20385;-76
2021/01/18 11:30:07;;;;;;;1.30;1.20;;;5.10;99.90;;;;;;5048290;28;20492;-76
2021/01/18 11:32:33;;;;;;;1.40;1.20;;;4.90;99.90;;;;;;5047318;28;20898;-77
2021/01/18 11:34:58;;;;;;;1.15;0.90;;;5.10;99.90;;;;;;5048460;28;20392;-77
2021/01/18 11:37:24;;;;;;;1.80;1.50;;;5.70;99.90;;;;;;5047617;28;20377;-75
2021/01/18 11:39:50;;;;;;;1.45;1.05;;;4.80;99.90;;;;;;5048521;28;20870;-76
2021/01/18 11:42:15;;;;;;;1.67;1.10;;;5.00;99.30;;;;;;5046416;28;20519;-77
2021/01/18 11:44:41;;;;;;;0.95;0.80;;;5.60;99.90;;;;;;5046204;28;20908;-76
2021/01/18 11:47:06;;;;;;;1.43;1.20;;;4.70;99.90;;;;;;5051500;28;20444;-78
2021/01/18 11:49:32;;;;;;;2.00;0.80;;;4.70;99.90;;;;;;5052204;28;20622;-78
2021/01/18 11:51:58;;;;;;;3.70;1.30;;;5.00;99.90;;;;;;5052550;28;20813;-77
2021/01/18 11:54:24;;;;;;;1.30;1.20;;;4.90;99.90;;;;;;5049402;28;20869;-79
2021/01/18 11:56:50;;;;;;;1.30;1.20;;;5.10;99.90;;;;;;5050972;28;20435;-78
2021/01/18 11:59:16;;;;;;;2.00;1.10;;;5.10;99.90;;;;;;5052104;28;20386;-78
2021/01/18 12:01:45;;;;;;;0.90;0.77;;;5.10;99.90;;;;;;5054089;28;20416;-78
2021/01/18 12:04:11;;;;;;;3.60;1.20;;;6.30;99.90;;;;;;5052253;28;20390;-78
2021/01/18 12:06:39;;;;;;;2.40;1.30;;;5.50;99.90;;;;;;5052407;28;20476;-78
2021/01/18 12:09:06;;;;;;;1.70;1.10;;;4.80;99.90;;;;;;5051277;28;20878;-78
2021/01/18 12:11:39;;;;;;;1.90;0.90;;;4.80;99.90;;;;;;5051358;28;20421;-77
2021/01/18 12:14:08;;;;;;;3.60;1.20;;;5.10;98.00;;;;;;5045096;28;20430;-77
2021/01/18 12:16:34;;;;;;;1.80;1.00;;;5.40;99.90;;;;;;5051580;28;20431;-77
2021/01/18 12:19:00;;;;;;;1.98;1.10;;;5.10;99.90;;;;;;5051548;28;20389;-77
2021/01/18 12:21:25;;;;;;;1.00;0.90;;;5.80;99.90;;;;;;5051083;28;20413;-77
2021/01/18 12:23:51;;;;;;;1.43;1.10;;;5.30;99.90;;;;;;5050773;28;20377;-77
2021/01/18 12:26:19;;;;;;;2.00;1.00;;;5.20;99.60;;;;;;5050580;28;20857;-77
2021/01/18 12:28:46;;;;;;;1.40;0.90;;;6.50;99.10;;;;;;5050617;28;20885;-77
2021/01/18 12:31:12;;;;;;;0.85;0.73;;;6.50;99.90;;;;;;5050736;28;20478;-78
2021/01/18 12:33:39;;;;;;;1.00;0.82;;;5.00;99.90;;;;;;5049876;28;20477;-77
2021/01/18 12:36:05;;;;;;;1.75;0.80;;;6.00;99.90;;;;;;5051708;28;20758;-78
2021/01/18 12:38:31;;;;;;;2.30;0.90;;;4.90;99.50;;;;;;5051149;28;20453;-78
2021/01/18 12:40:56;;;;;;;2.53;1.03;;;5.40;98.90;;;;;;5051486;28;20390;-77
2021/01/18 12:43:22;;;;;;;1.00;0.80;;;4.90;99.70;;;;;;5050742;28;20386;-79
2021/01/18 12:45:48;;;;;;;1.10;0.80;;;6.00;99.90;;;;;;5048325;28;20395;-78
2021/01/18 12:48:15;;;;;;;0.90;0.70;;;5.50;98.50;;;;;;5048013;28;20445;-79
2021/01/18 12:50:41;;;;;;;1.13;0.73;;;5.70;97.90;;;;;;5047195;28;20407;-78
2021/01/18 12:53:10;;;;;;;1.13;0.90;;;5.10;97.10;;;;;;5043764;28;20478;-78
2021/01/18 12:55:36;;;;;;;1.08;0.80;;;5.70;97.00;;;;;;5048344;28;20445;-77
2021/01/18 12:58:02;;;;;;;2.40;1.00;;;7.00;98.00;;;;;;5031826;28;20480;-77
2021/01/18 13:00:28;;;;;;;1.20;0.80;;;4.90;99.90;;;;;;5031299;28;20482;-77
2021/01/18 13:02:54;;;;;;;2.10;1.00;;;5.10;99.90;;;;;;5031968;28;20379;-77
2021/01/18 13:05:20;;;;;;;2.60;1.10;;;5.00;99.40;;;;;;5031286;28;20387;-78
2021/01/18 13:07:47;;;;;;;1.00;0.80;;;5.40;98.40;;;;;;5031945;28;20494;-77
2021/01/18 13:10:13;;;;;;;2.10;0.95;;;5.20;96.90;;;;;;5047204;28;20399;-78
2021/01/18 13:12:39;;;;;;;1.83;1.10;;;5.30;97.50;;;;;;5030922;28;20951;-78
2021/01/18 13:15:05;;;;;;;2.42;0.90;;;6.90;97.50;;;;;;5031804;28;20434;-77